sensor_id;sensor_type;location;lat;lon;timestamp;P1;durP1;ratioP1;P2;durP2;ratioP2
44989;SDS011;30723;51.206;3.326;2022-09-09T00:01:42;13.50;;;5.63;;
44989;SDS011;30723;51.206;3.326;2022-09-09T00:04:34;15.13;;;5.95;;
44989;SDS011;30723;51.206;3.326;2022-09-09T00:07:13;14.48;;;6.82;;
44989;SDS011;30723;51.206;3.326;2022-09-09T00:10:17;16.42;;;6.50;;
44989;SDS011;30723;51.206;3.326;2022-09-09T00:18:26;11.95;;;6.82;;
44989;SDS011;30723;51.206;3.326;2022-09-09T00:23:28;10.50;;;6.28;;
44989;SDS011;30723;51.206;3.326;2022-09-09T00:25:59;13.77;;;7.03;;
44989;SDS011;30723;51.206;3.326;2022-09-09T00:28:41;12.32;;;6.60;;
44989;SDS011;30723;51.206;3.326;2022-09-09T00:31:20;12.35;;;7.05;;
44989;SDS011;30723;51.206;3.326;2022-09-09T00:33:51;13.52;;;6.68;;
44989;SDS011;30723;51.206;3.326;2022-09-09T00:36:23;12.18;;;5.93;;
44989;SDS011;30723;51.206;3.326;2022-09-09T00:38:52;17.02;;;6.55;;
44989;SDS011;30723;51.206;3.326;2022-09-09T00:41:23;13.65;;;6.03;;
44989;SDS011;30723;51.206;3.326;2022-09-09T00:44:14;10.80;;;5.68;;
44989;SDS011;30723;51.206;3.326;2022-09-09T00:49:54;9.20;;;4.38;;
44989;SDS011;30723;51.206;3.326;2022-09-09T00:52:39;9.45;;;4.45;;
44989;SDS011;30723;51.206;3.326;2022-09-09T00:55:21;7.80;;;4.85;;
44989;SDS011;30723;51.206;3.326;2022-09-09T00:58:07;13.60;;;5.50;;
44989;SDS011;30723;51.206;3.326;2022-09-09T01:00:47;13.00;;;5.22;;
44989;SDS011;30723;51.206;3.326;2022-09-09T01:03:22;10.88;;;5.32;;
44989;SDS011;30723;51.206;3.326;2022-09-09T01:09:26;10.80;;;5.03;;
44989;SDS011;30723;51.206;3.326;2022-09-09T01:15:12;8.52;;;4.22;;
44989;SDS011;30723;51.206;3.326;2022-09-09T01:17:55;7.70;;;4.50;;
44989;SDS011;30723;51.206;3.326;2022-09-09T01:20:31;12.48;;;4.47;;
44989;SDS011;30723;51.206;3.326;2022-09-09T01:26:09;16.45;;;5.82;;
44989;SDS011;30723;51.206;3.326;2022-09-09T01:28:51;13.05;;;5.90;;
44989;SDS011;30723;51.206;3.326;2022-09-09T01:31:19;12.85;;;4.68;;
44989;SDS011;30723;51.206;3.326;2022-09-09T01:33:48;15.80;;;6.18;;
44989;SDS011;30723;51.206;3.326;2022-09-09T01:36:19;13.75;;;4.60;;
44989;SDS011;30723;51.206;3.326;2022-09-09T01:38:53;11.52;;;4.85;;
44989;SDS011;30723;51.206;3.326;2022-09-09T01:41:19;15.25;;;4.82;;
44989;SDS011;30723;51.206;3.326;2022-09-09T01:43:45;9.05;;;4.18;;
44989;SDS011;30723;51.206;3.326;2022-09-09T01:46:11;17.23;;;4.25;;
44989;SDS011;30723;51.206;3.326;2022-09-09T01:48:38;10.00;;;4.10;;
44989;SDS011;30723;51.206;3.326;2022-09-09T01:51:05;14.10;;;4.72;;
44989;SDS011;30723;51.206;3.326;2022-09-09T01:53:34;7.95;;;4.13;;
44989;SDS011;30723;51.206;3.326;2022-09-09T01:58:50;12.68;;;5.10;;
44989;SDS011;30723;51.206;3.326;2022-09-09T02:01:42;12.63;;;5.13;;
44989;SDS011;30723;51.206;3.326;2022-09-09T02:04:42;12.68;;;5.57;;
44989;SDS011;30723;51.206;3.326;2022-09-09T02:10:16;9.50;;;3.92;;
44989;SDS011;30723;51.206;3.326;2022-09-09T02:12:47;12.68;;;5.05;;
44989;SDS011;30723;51.206;3.326;2022-09-09T02:18:14;10.18;;;4.47;;
44989;SDS011;30723;51.206;3.326;2022-09-09T02:20:47;14.30;;;4.30;;
44989;SDS011;30723;51.206;3.326;2022-09-09T02:23:13;15.00;;;3.88;;
44989;SDS011;30723;51.206;3.326;2022-09-09T02:25:40;7.20;;;3.33;;
44989;SDS011;30723;51.206;3.326;2022-09-09T02:28:09;10.60;;;3.72;;
44989;SDS011;30723;51.206;3.326;2022-09-09T02:30:37;9.82;;;3.10;;
44989;SDS011;30723;51.206;3.326;2022-09-09T02:33:06;16.25;;;3.72;;
44989;SDS011;30723;51.206;3.326;2022-09-09T02:35:35;11.65;;;3.20;;
44989;SDS011;30723;51.206;3.326;2022-09-09T02:38:04;8.23;;;3.10;;
44989;SDS011;30723;51.206;3.326;2022-09-09T02:40:34;10.10;;;2.80;;
44989;SDS011;30723;51.206;3.326;2022-09-09T02:43:00;7.97;;;2.75;;
44989;SDS011;30723;51.206;3.326;2022-09-09T02:45:27;9.93;;;2.95;;
44989;SDS011;30723;51.206;3.326;2022-09-09T02:51:06;10.13;;;2.95;;
44989;SDS011;30723;51.206;3.326;2022-09-09T02:56:48;12.57;;;2.85;;
44989;SDS011;30723;51.206;3.326;2022-09-09T02:59:19;7.85;;;2.88;;
44989;SDS011;30723;51.206;3.326;2022-09-09T03:01:46;10.93;;;2.83;;
44989;SDS011;30723;51.206;3.326;2022-09-09T03:04:12;12.70;;;2.40;;
44989;SDS011;30723;51.206;3.326;2022-09-09T03:06:38;10.75;;;3.03;;
44989;SDS011;30723;51.206;3.326;2022-09-09T03:09:04;11.43;;;2.72;;
44989;SDS011;30723;51.206;3.326;2022-09-09T03:11:30;10.23;;;2.55;;
44989;SDS011;30723;51.206;3.326;2022-09-09T03:13:56;9.73;;;2.55;;
44989;SDS011;30723;51.206;3.326;2022-09-09T03:16:22;13.23;;;2.67;;
44989;SDS011;30723;51.206;3.326;2022-09-09T03:18:48;8.73;;;2.90;;
44989;SDS011;30723;51.206;3.326;2022-09-09T03:21:14;12.00;;;2.88;;
44989;SDS011;30723;51.206;3.326;2022-09-09T03:23:40;9.20;;;2.80;;
44989;SDS011;30723;51.206;3.326;2022-09-09T03:26:06;11.40;;;3.03;;
44989;SDS011;30723;51.206;3.326;2022-09-09T03:28:32;9.70;;;2.92;;
44989;SDS011;30723;51.206;3.326;2022-09-09T03:31:02;9.95;;;2.97;;
44989;SDS011;30723;51.206;3.326;2022-09-09T03:33:30;9.45;;;2.63;;
44989;SDS011;30723;51.206;3.326;2022-09-09T03:35:56;12.02;;;2.92;;
44989;SDS011;30723;51.206;3.326;2022-09-09T03:38:22;12.30;;;2.90;;
44989;SDS011;30723;51.206;3.326;2022-09-09T03:40:50;8.25;;;3.13;;
44989;SDS011;30723;51.206;3.326;2022-09-09T03:43:23;13.93;;;3.03;;
44989;SDS011;30723;51.206;3.326;2022-09-09T03:45:50;15.90;;;4.03;;
44989;SDS011;30723;51.206;3.326;2022-09-09T03:48:17;7.72;;;2.80;;
44989;SDS011;30723;51.206;3.326;2022-09-09T03:50:44;14.80;;;3.78;;
44989;SDS011;30723;51.206;3.326;2022-09-09T03:53:11;8.77;;;2.63;;
44989;SDS011;30723;51.206;3.326;2022-09-09T03:55:38;11.40;;;3.10;;
44989;SDS011;30723;51.206;3.326;2022-09-09T03:58:06;14.88;;;3.35;;
44989;SDS011;30723;51.206;3.326;2022-09-09T04:00:32;13.88;;;3.72;;
44989;SDS011;30723;51.206;3.326;2022-09-09T04:02:58;9.02;;;3.40;;
44989;SDS011;30723;51.206;3.326;2022-09-09T04:05:24;15.70;;;3.85;;
44989;SDS011;30723;51.206;3.326;2022-09-09T04:07:50;13.27;;;3.78;;
44989;SDS011;30723;51.206;3.326;2022-09-09T04:10:16;12.65;;;4.05;;
44989;SDS011;30723;51.206;3.326;2022-09-09T04:12:42;18.08;;;4.15;;
44989;SDS011;30723;51.206;3.326;2022-09-09T04:15:08;12.25;;;4.45;;
44989;SDS011;30723;51.206;3.326;2022-09-09T04:17:35;15.57;;;5.05;;
44989;SDS011;30723;51.206;3.326;2022-09-09T04:20:01;19.90;;;4.78;;
44989;SDS011;30723;51.206;3.326;2022-09-09T04:22:27;11.15;;;4.40;;
44989;SDS011;30723;51.206;3.326;2022-09-09T04:24:53;17.05;;;4.43;;
44989;SDS011;30723;51.206;3.326;2022-09-09T04:27:19;18.45;;;4.60;;
44989;SDS011;30723;51.206;3.326;2022-09-09T04:29:45;18.63;;;5.03;;
44989;SDS011;30723;51.206;3.326;2022-09-09T04:32:10;19.13;;;4.50;;
44989;SDS011;30723;51.206;3.326;2022-09-09T04:34:36;16.83;;;4.70;;
44989;SDS011;30723;51.206;3.326;2022-09-09T04:37:02;16.38;;;4.68;;
44989;SDS011;30723;51.206;3.326;2022-09-09T04:39:28;19.92;;;5.32;;
44989;SDS011;30723;51.206;3.326;2022-09-09T04:41:53;17.05;;;4.72;;
44989;SDS011;30723;51.206;3.326;2022-09-09T04:44:20;25.42;;;5.20;;
44989;SDS011;30723;51.206;3.326;2022-09-09T04:46:46;12.48;;;4.57;;
44989;SDS011;30723;51.206;3.326;2022-09-09T04:49:11;15.20;;;4.80;;
44989;SDS011;30723;51.206;3.326;2022-09-09T04:51:37;19.48;;;5.03;;
44989;SDS011;30723;51.206;3.326;2022-09-09T04:54:04;20.15;;;6.13;;
44989;SDS011;30723;51.206;3.326;2022-09-09T04:56:30;20.58;;;4.80;;
44989;SDS011;30723;51.206;3.326;2022-09-09T04:58:56;39.60;;;5.78;;
44989;SDS011;30723;51.206;3.326;2022-09-09T05:01:22;19.42;;;5.10;;
44989;SDS011;30723;51.206;3.326;2022-09-09T05:03:49;21.45;;;6.28;;
44989;SDS011;30723;51.206;3.326;2022-09-09T05:06:16;20.35;;;6.03;;
44989;SDS011;30723;51.206;3.326;2022-09-09T05:08:43;16.10;;;5.45;;
44989;SDS011;30723;51.206;3.326;2022-09-09T05:11:25;25.67;;;6.40;;
44989;SDS011;30723;51.206;3.326;2022-09-09T05:13:54;22.35;;;6.00;;
44989;SDS011;30723;51.206;3.326;2022-09-09T05:16:20;15.60;;;5.50;;
44989;SDS011;30723;51.206;3.326;2022-09-09T05:18:46;21.63;;;5.78;;
44989;SDS011;30723;51.206;3.326;2022-09-09T05:21:13;18.23;;;5.30;;
44989;SDS011;30723;51.206;3.326;2022-09-09T05:23:40;21.25;;;5.93;;
44989;SDS011;30723;51.206;3.326;2022-09-09T05:26:06;24.85;;;5.53;;
44989;SDS011;30723;51.206;3.326;2022-09-09T05:28:36;22.10;;;6.10;;
44989;SDS011;30723;51.206;3.326;2022-09-09T05:31:06;12.63;;;4.80;;
44989;SDS011;30723;51.206;3.326;2022-09-09T05:33:33;15.77;;;5.13;;
44989;SDS011;30723;51.206;3.326;2022-09-09T05:36:10;17.52;;;5.07;;
44989;SDS011;30723;51.206;3.326;2022-09-09T05:38:38;19.38;;;4.90;;
44989;SDS011;30723;51.206;3.326;2022-09-09T05:41:06;13.60;;;4.28;;
44989;SDS011;30723;51.206;3.326;2022-09-09T05:43:32;18.77;;;4.00;;
44989;SDS011;30723;51.206;3.326;2022-09-09T05:46:04;14.20;;;4.50;;
44989;SDS011;30723;51.206;3.326;2022-09-09T05:48:32;16.92;;;4.80;;
44989;SDS011;30723;51.206;3.326;2022-09-09T05:50:59;17.50;;;4.28;;
44989;SDS011;30723;51.206;3.326;2022-09-09T05:53:26;20.50;;;4.90;;
44989;SDS011;30723;51.206;3.326;2022-09-09T05:58:32;18.77;;;5.18;;
44989;SDS011;30723;51.206;3.326;2022-09-09T06:01:06;13.00;;;4.73;;
44989;SDS011;30723;51.206;3.326;2022-09-09T06:03:34;17.98;;;4.18;;
44989;SDS011;30723;51.206;3.326;2022-09-09T06:06:01;22.40;;;5.72;;
44989;SDS011;30723;51.206;3.326;2022-09-09T06:11:01;16.95;;;4.78;;
44989;SDS011;30723;51.206;3.326;2022-09-09T06:13:28;12.63;;;4.80;;
44989;SDS011;30723;51.206;3.326;2022-09-09T06:15:54;19.95;;;5.43;;
44989;SDS011;30723;51.206;3.326;2022-09-09T06:18:20;14.55;;;4.65;;
44989;SDS011;30723;51.206;3.326;2022-09-09T06:20:56;14.38;;;4.90;;
44989;SDS011;30723;51.206;3.326;2022-09-09T06:23:23;18.23;;;4.63;;
44989;SDS011;30723;51.206;3.326;2022-09-09T06:25:49;18.13;;;4.65;;
44989;SDS011;30723;51.206;3.326;2022-09-09T06:28:15;21.08;;;5.18;;
44989;SDS011;30723;51.206;3.326;2022-09-09T06:30:41;16.88;;;5.03;;
44989;SDS011;30723;51.206;3.326;2022-09-09T06:33:07;12.57;;;4.57;;
44989;SDS011;30723;51.206;3.326;2022-09-09T06:35:33;18.27;;;4.45;;
44989;SDS011;30723;51.206;3.326;2022-09-09T06:37:58;18.20;;;4.38;;
44989;SDS011;30723;51.206;3.326;2022-09-09T06:40:25;22.33;;;4.95;;
44989;SDS011;30723;51.206;3.326;2022-09-09T06:42:51;9.77;;;4.20;;
44989;SDS011;30723;51.206;3.326;2022-09-09T06:45:16;22.75;;;5.28;;
44989;SDS011;30723;51.206;3.326;2022-09-09T06:47:43;9.80;;;4.22;;
44989;SDS011;30723;51.206;3.326;2022-09-09T06:50:09;13.45;;;3.75;;
44989;SDS011;30723;51.206;3.326;2022-09-09T06:52:36;13.75;;;4.03;;
44989;SDS011;30723;51.206;3.326;2022-09-09T06:55:02;17.45;;;4.88;;
44989;SDS011;30723;51.206;3.326;2022-09-09T06:57:28;15.65;;;3.63;;
44989;SDS011;30723;51.206;3.326;2022-09-09T06:59:54;13.45;;;3.75;;
44989;SDS011;30723;51.206;3.326;2022-09-09T07:02:20;20.33;;;3.95;;
44989;SDS011;30723;51.206;3.326;2022-09-09T07:04:46;12.77;;;3.78;;
44989;SDS011;30723;51.206;3.326;2022-09-09T07:07:12;19.60;;;3.78;;
44989;SDS011;30723;51.206;3.326;2022-09-09T07:09:40;16.80;;;4.20;;
44989;SDS011;30723;51.206;3.326;2022-09-09T07:12:06;12.55;;;3.28;;
44989;SDS011;30723;51.206;3.326;2022-09-09T07:14:32;17.15;;;4.18;;
44989;SDS011;30723;51.206;3.326;2022-09-09T07:16:59;14.07;;;4.28;;
44989;SDS011;30723;51.206;3.326;2022-09-09T07:19:25;16.02;;;4.15;;
44989;SDS011;30723;51.206;3.326;2022-09-09T07:21:51;12.98;;;4.05;;
44989;SDS011;30723;51.206;3.326;2022-09-09T07:24:17;13.98;;;4.20;;
44989;SDS011;30723;51.206;3.326;2022-09-09T07:26:43;12.27;;;3.53;;
44989;SDS011;30723;51.206;3.326;2022-09-09T07:29:09;16.95;;;3.95;;
44989;SDS011;30723;51.206;3.326;2022-09-09T07:31:36;16.40;;;4.22;;
44989;SDS011;30723;51.206;3.326;2022-09-09T07:34:04;12.93;;;3.45;;
44989;SDS011;30723;51.206;3.326;2022-09-09T07:36:37;10.10;;;3.78;;
44989;SDS011;30723;51.206;3.326;2022-09-09T07:39:05;16.52;;;4.55;;
44989;SDS011;30723;51.206;3.326;2022-09-09T07:41:34;13.23;;;4.13;;
44989;SDS011;30723;51.206;3.326;2022-09-09T07:44:06;15.52;;;4.22;;
44989;SDS011;30723;51.206;3.326;2022-09-09T07:46:34;8.15;;;3.95;;
44989;SDS011;30723;51.206;3.326;2022-09-09T07:49:00;16.08;;;3.42;;
44989;SDS011;30723;51.206;3.326;2022-09-09T07:51:34;9.43;;;3.20;;
44989;SDS011;30723;51.206;3.326;2022-09-09T07:54:02;15.05;;;3.78;;
44989;SDS011;30723;51.206;3.326;2022-09-09T07:56:30;17.95;;;3.88;;
44989;SDS011;30723;51.206;3.326;2022-09-09T07:58:57;16.77;;;3.97;;
44989;SDS011;30723;51.206;3.326;2022-09-09T08:01:28;11.75;;;3.88;;
44989;SDS011;30723;51.206;3.326;2022-09-09T08:03:59;10.70;;;3.47;;
44989;SDS011;30723;51.206;3.326;2022-09-09T08:06:28;12.40;;;3.70;;
44989;SDS011;30723;51.206;3.326;2022-09-09T08:08:55;13.13;;;3.97;;
44989;SDS011;30723;51.206;3.326;2022-09-09T08:11:22;11.07;;;3.50;;
44989;SDS011;30723;51.206;3.326;2022-09-09T08:13:49;14.60;;;3.72;;
44989;SDS011;30723;51.206;3.326;2022-09-09T08:16:17;8.95;;;3.30;;
44989;SDS011;30723;51.206;3.326;2022-09-09T08:18:50;11.95;;;3.65;;
44989;SDS011;30723;51.206;3.326;2022-09-09T08:21:27;10.68;;;4.30;;
44989;SDS011;30723;51.206;3.326;2022-09-09T08:23:55;10.45;;;3.35;;
44989;SDS011;30723;51.206;3.326;2022-09-09T08:26:23;10.02;;;3.83;;
44989;SDS011;30723;51.206;3.326;2022-09-09T08:28:50;9.27;;;3.63;;
44989;SDS011;30723;51.206;3.326;2022-09-09T08:31:22;13.98;;;3.60;;
44989;SDS011;30723;51.206;3.326;2022-09-09T08:33:49;7.60;;;2.92;;
44989;SDS011;30723;51.206;3.326;2022-09-09T08:36:19;13.68;;;4.10;;
44989;SDS011;30723;51.206;3.326;2022-09-09T08:38:50;8.55;;;4.32;;
44989;SDS011;30723;51.206;3.326;2022-09-09T08:52:25;8.00;;;2.80;;
44989;SDS011;30723;51.206;3.326;2022-09-09T08:57:54;4.15;;;2.67;;
44989;SDS011;30723;51.206;3.326;2022-09-09T09:00:22;8.90;;;3.13;;
44989;SDS011;30723;51.206;3.326;2022-09-09T09:03:15;10.05;;;3.25;;
44989;SDS011;30723;51.206;3.326;2022-09-09T09:11:21;7.53;;;2.70;;
44989;SDS011;30723;51.206;3.326;2022-09-09T09:14:03;8.50;;;3.00;;
44989;SDS011;30723;51.206;3.326;2022-09-09T09:17:18;2.40;;;1.63;;
44989;SDS011;30723;51.206;3.326;2022-09-09T09:19:28;5.15;;;2.45;;
44989;SDS011;30723;51.206;3.326;2022-09-09T09:24:25;8.10;;;2.20;;
44989;SDS011;30723;51.206;3.326;2022-09-09T09:27:07;9.80;;;2.05;;
44989;SDS011;30723;51.206;3.326;2022-09-09T09:29:38;6.90;;;2.28;;
44989;SDS011;30723;51.206;3.326;2022-09-09T09:32:07;5.63;;;2.40;;
44989;SDS011;30723;51.206;3.326;2022-09-09T09:34:38;9.95;;;2.75;;
44989;SDS011;30723;51.206;3.326;2022-09-09T09:37:17;8.45;;;2.28;;
44989;SDS011;30723;51.206;3.326;2022-09-09T09:40:07;3.90;;;1.90;;
44989;SDS011;30723;51.206;3.326;2022-09-09T09:42:34;6.68;;;1.80;;
44989;SDS011;30723;51.206;3.326;2022-09-09T09:48:06;9.55;;;1.80;;
44989;SDS011;30723;51.206;3.326;2022-09-09T09:50:35;4.97;;;1.65;;
44989;SDS011;30723;51.206;3.326;2022-09-09T09:53:22;4.68;;;1.58;;
44989;SDS011;30723;51.206;3.326;2022-09-09T09:56:00;4.00;;;1.30;;
44989;SDS011;30723;51.206;3.326;2022-09-09T09:58:31;4.07;;;1.33;;
44989;SDS011;30723;51.206;3.326;2022-09-09T10:01:23;3.42;;;1.40;;
44989;SDS011;30723;51.206;3.326;2022-09-09T10:06:45;8.50;;;2.00;;
44989;SDS011;30723;51.206;3.326;2022-09-09T10:09:28;6.07;;;2.15;;
44989;SDS011;30723;51.206;3.326;2022-09-09T10:12:12;10.25;;;2.10;;
44989;SDS011;30723;51.206;3.326;2022-09-09T10:15:15;7.25;;;1.27;;
44989;SDS011;30723;51.206;3.326;2022-09-09T10:20:56;4.20;;;1.77;;
44989;SDS011;30723;51.206;3.326;2022-09-09T10:37:25;6.93;;;2.17;;
44989;SDS011;30723;51.206;3.326;2022-09-09T10:40:00;9.20;;;2.42;;
44989;SDS011;30723;51.206;3.326;2022-09-09T10:42:51;5.50;;;2.13;;
44989;SDS011;30723;51.206;3.326;2022-09-09T10:45:30;8.80;;;2.10;;
44989;SDS011;30723;51.206;3.326;2022-09-09T10:53:09;11.82;;;2.95;;
44989;SDS011;30723;51.206;3.326;2022-09-09T10:55:43;8.45;;;2.65;;
44989;SDS011;30723;51.206;3.326;2022-09-09T10:58:12;12.85;;;2.42;;
44989;SDS011;30723;51.206;3.326;2022-09-09T11:00:44;6.00;;;2.40;;
44989;SDS011;30723;51.206;3.326;2022-09-09T11:03:22;5.60;;;2.72;;
44989;SDS011;30723;51.206;3.326;2022-09-09T11:05:53;9.35;;;3.33;;
44989;SDS011;30723;51.206;3.326;2022-09-09T11:08:31;9.25;;;2.85;;
44989;SDS011;30723;51.206;3.326;2022-09-09T11:18:50;22.52;;;4.30;;
44989;SDS011;30723;51.206;3.326;2022-09-09T11:21:33;6.57;;;3.72;;
44989;SDS011;30723;51.206;3.326;2022-09-09T11:24:06;12.15;;;3.95;;
44989;SDS011;30723;51.206;3.326;2022-09-09T11:26:49;8.23;;;4.50;;
44989;SDS011;30723;51.206;3.326;2022-09-09T11:29:26;12.68;;;4.32;;
44989;SDS011;30723;51.206;3.326;2022-09-09T11:40:36;11.38;;;3.97;;
44989;SDS011;30723;51.206;3.326;2022-09-09T11:43:04;8.90;;;3.55;;
44989;SDS011;30723;51.206;3.326;2022-09-09T11:45:37;6.72;;;3.60;;
44989;SDS011;30723;51.206;3.326;2022-09-09T11:48:05;6.30;;;3.50;;
44989;SDS011;30723;51.206;3.326;2022-09-09T11:51:24;6.43;;;2.97;;
44989;SDS011;30723;51.206;3.326;2022-09-09T11:53:54;9.38;;;3.90;;
44989;SDS011;30723;51.206;3.326;2022-09-09T11:59:28;6.38;;;2.20;;
44989;SDS011;30723;51.206;3.326;2022-09-09T12:14:43;3.17;;;1.30;;
44989;SDS011;30723;51.206;3.326;2022-09-09T12:17:22;3.13;;;1.48;;
44989;SDS011;30723;51.206;3.326;2022-09-09T12:22:51;3.10;;;0.80;;
44989;SDS011;30723;51.206;3.326;2022-09-09T12:28:16;4.75;;;1.60;;
44989;SDS011;30723;51.206;3.326;2022-09-09T12:33:36;8.93;;;1.73;;
44989;SDS011;30723;51.206;3.326;2022-09-09T12:36:12;4.80;;;1.48;;
44989;SDS011;30723;51.206;3.326;2022-09-09T12:38:44;6.45;;;1.60;;
44989;SDS011;30723;51.206;3.326;2022-09-09T12:41:21;4.68;;;1.23;;
44989;SDS011;30723;51.206;3.326;2022-09-09T12:43:51;7.38;;;1.48;;
44989;SDS011;30723;51.206;3.326;2022-09-09T12:46:40;5.32;;;1.48;;
44989;SDS011;30723;51.206;3.326;2022-09-09T12:54:42;6.13;;;2.20;;
44989;SDS011;30723;51.206;3.326;2022-09-09T12:57:16;6.15;;;1.70;;
44989;SDS011;30723;51.206;3.326;2022-09-09T12:59:43;6.82;;;1.95;;
44989;SDS011;30723;51.206;3.326;2022-09-09T13:02:18;6.03;;;1.55;;
44989;SDS011;30723;51.206;3.326;2022-09-09T13:04:48;5.72;;;1.30;;
44989;SDS011;30723;51.206;3.326;2022-09-09T13:07:15;4.75;;;1.50;;
44989;SDS011;30723;51.206;3.326;2022-09-09T13:09:42;5.00;;;1.60;;
44989;SDS011;30723;51.206;3.326;2022-09-09T13:12:13;7.55;;;1.80;;
44989;SDS011;30723;51.206;3.326;2022-09-09T13:14:48;2.60;;;1.42;;
44989;SDS011;30723;51.206;3.326;2022-09-09T13:17:20;3.88;;;1.40;;
44989;SDS011;30723;51.206;3.326;2022-09-09T13:19:48;7.35;;;1.77;;
44989;SDS011;30723;51.206;3.326;2022-09-09T13:22:29;7.70;;;1.65;;
44989;SDS011;30723;51.206;3.326;2022-09-09T13:25:05;4.75;;;1.45;;
44989;SDS011;30723;51.206;3.326;2022-09-09T13:27:36;6.55;;;1.70;;
44989;SDS011;30723;51.206;3.326;2022-09-09T13:30:21;6.18;;;1.80;;
44989;SDS011;30723;51.206;3.326;2022-09-09T13:35:56;5.15;;;1.55;;
44989;SDS011;30723;51.206;3.326;2022-09-09T13:40:56;8.95;;;1.90;;
44989;SDS011;30723;51.206;3.326;2022-09-09T13:43:26;6.03;;;1.23;;
44989;SDS011;30723;51.206;3.326;2022-09-09T13:45:58;6.55;;;1.73;;
44989;SDS011;30723;51.206;3.326;2022-09-09T13:48:26;5.80;;;1.60;;
44989;SDS011;30723;51.206;3.326;2022-09-09T13:54:01;6.43;;;1.90;;
44989;SDS011;30723;51.206;3.326;2022-09-09T13:56:27;6.63;;;1.92;;
44989;SDS011;30723;51.206;3.326;2022-09-09T13:58:53;6.88;;;2.13;;
44989;SDS011;30723;51.206;3.326;2022-09-09T14:01:18;5.88;;;2.00;;
44989;SDS011;30723;51.206;3.326;2022-09-09T14:03:44;7.97;;;1.95;;
44989;SDS011;30723;51.206;3.326;2022-09-09T14:06:10;8.85;;;2.20;;
44989;SDS011;30723;51.206;3.326;2022-09-09T14:08:36;7.43;;;1.95;;
44989;SDS011;30723;51.206;3.326;2022-09-09T14:11:03;4.18;;;1.70;;
44989;SDS011;30723;51.206;3.326;2022-09-09T14:13:29;7.85;;;1.20;;
44989;SDS011;30723;51.206;3.326;2022-09-09T14:15:55;9.38;;;1.65;;
44989;SDS011;30723;51.206;3.326;2022-09-09T14:18:21;6.68;;;1.83;;
44989;SDS011;30723;51.206;3.326;2022-09-09T14:20:48;4.95;;;1.50;;
44989;SDS011;30723;51.206;3.326;2022-09-09T14:23:15;4.20;;;1.50;;
44989;SDS011;30723;51.206;3.326;2022-09-09T14:25:44;4.38;;;1.48;;
44989;SDS011;30723;51.206;3.326;2022-09-09T14:28:10;3.70;;;1.42;;
44989;SDS011;30723;51.206;3.326;2022-09-09T14:30:38;6.15;;;1.55;;
44989;SDS011;30723;51.206;3.326;2022-09-09T14:33:05;7.38;;;2.00;;
44989;SDS011;30723;51.206;3.326;2022-09-09T14:35:32;6.70;;;1.90;;
44989;SDS011;30723;51.206;3.326;2022-09-09T14:37:58;5.03;;;1.52;;
44989;SDS011;30723;51.206;3.326;2022-09-09T14:40:26;6.95;;;1.83;;
44989;SDS011;30723;51.206;3.326;2022-09-09T14:42:52;10.57;;;1.92;;
44989;SDS011;30723;51.206;3.326;2022-09-09T14:45:18;7.78;;;1.92;;
44989;SDS011;30723;51.206;3.326;2022-09-09T14:47:46;14.10;;;1.70;;
44989;SDS011;30723;51.206;3.326;2022-09-09T14:50:12;4.60;;;1.60;;
44989;SDS011;30723;51.206;3.326;2022-09-09T14:52:38;4.22;;;1.63;;
44989;SDS011;30723;51.206;3.326;2022-09-09T14:55:04;6.43;;;1.50;;
44989;SDS011;30723;51.206;3.326;2022-09-09T14:57:31;5.68;;;1.38;;
44989;SDS011;30723;51.206;3.326;2022-09-09T14:59:57;4.25;;;1.20;;
44989;SDS011;30723;51.206;3.326;2022-09-09T15:02:22;3.70;;;1.55;;
44989;SDS011;30723;51.206;3.326;2022-09-09T15:04:48;6.53;;;1.55;;
44989;SDS011;30723;51.206;3.326;2022-09-09T15:07:17;5.20;;;1.60;;
44989;SDS011;30723;51.206;3.326;2022-09-09T15:09:44;5.40;;;1.55;;
44989;SDS011;30723;51.206;3.326;2022-09-09T15:12:12;4.97;;;1.38;;
44989;SDS011;30723;51.206;3.326;2022-09-09T15:14:39;5.15;;;1.35;;
44989;SDS011;30723;51.206;3.326;2022-09-09T15:17:04;6.03;;;1.27;;
44989;SDS011;30723;51.206;3.326;2022-09-09T15:19:30;9.57;;;1.83;;
44989;SDS011;30723;51.206;3.326;2022-09-09T15:21:56;5.03;;;1.55;;
44989;SDS011;30723;51.206;3.326;2022-09-09T15:24:24;6.20;;;1.80;;
44989;SDS011;30723;51.206;3.326;2022-09-09T15:26:51;7.72;;;2.05;;
44989;SDS011;30723;51.206;3.326;2022-09-09T15:29:18;7.40;;;1.67;;
44989;SDS011;30723;51.206;3.326;2022-09-09T15:31:44;6.28;;;1.75;;
44989;SDS011;30723;51.206;3.326;2022-09-09T15:34:10;7.32;;;1.95;;
44989;SDS011;30723;51.206;3.326;2022-09-09T15:36:37;4.35;;;1.88;;
44989;SDS011;30723;51.206;3.326;2022-09-09T15:39:05;5.47;;;1.88;;
44989;SDS011;30723;51.206;3.326;2022-09-09T15:41:33;5.47;;;2.03;;
44989;SDS011;30723;51.206;3.326;2022-09-09T15:43:59;8.65;;;1.75;;
44989;SDS011;30723;51.206;3.326;2022-09-09T15:46:27;8.73;;;2.50;;
44989;SDS011;30723;51.206;3.326;2022-09-09T15:48:58;11.50;;;1.90;;
44989;SDS011;30723;51.206;3.326;2022-09-09T15:51:34;8.70;;;2.00;;
44989;SDS011;30723;51.206;3.326;2022-09-09T15:54:02;7.18;;;2.20;;
44989;SDS011;30723;51.206;3.326;2022-09-09T15:56:29;9.02;;;2.70;;
44989;SDS011;30723;51.206;3.326;2022-09-09T15:58:56;8.85;;;2.03;;
44989;SDS011;30723;51.206;3.326;2022-09-09T16:01:22;14.18;;;2.60;;
44989;SDS011;30723;51.206;3.326;2022-09-09T16:03:49;11.68;;;2.13;;
44989;SDS011;30723;51.206;3.326;2022-09-09T16:06:19;7.05;;;2.10;;
44989;SDS011;30723;51.206;3.326;2022-09-09T16:11:19;10.20;;;2.20;;
44989;SDS011;30723;51.206;3.326;2022-09-09T16:13:47;3.53;;;1.67;;
44989;SDS011;30723;51.206;3.326;2022-09-09T16:16:15;9.55;;;2.55;;
44989;SDS011;30723;51.206;3.326;2022-09-09T16:18:43;7.75;;;1.80;;
44989;SDS011;30723;51.206;3.326;2022-09-09T16:21:35;4.57;;;1.33;;
44989;SDS011;30723;51.206;3.326;2022-09-09T16:24:03;4.82;;;1.70;;
44989;SDS011;30723;51.206;3.326;2022-09-09T16:26:30;9.43;;;1.75;;
44989;SDS011;30723;51.206;3.326;2022-09-09T16:28:58;5.78;;;1.80;;
44989;SDS011;30723;51.206;3.326;2022-09-09T16:31:24;6.88;;;2.08;;
44989;SDS011;30723;51.206;3.326;2022-09-09T16:33:51;10.77;;;1.92;;
44989;SDS011;30723;51.206;3.326;2022-09-09T16:36:18;7.90;;;1.98;;
44989;SDS011;30723;51.206;3.326;2022-09-09T16:38:46;7.80;;;1.50;;
44989;SDS011;30723;51.206;3.326;2022-09-09T16:41:13;9.55;;;1.75;;
44989;SDS011;30723;51.206;3.326;2022-09-09T16:43:39;4.80;;;1.52;;
44989;SDS011;30723;51.206;3.326;2022-09-09T16:48:40;6.97;;;1.50;;
44989;SDS011;30723;51.206;3.326;2022-09-09T16:51:09;7.75;;;2.00;;
44989;SDS011;30723;51.206;3.326;2022-09-09T16:53:44;7.90;;;2.50;;
44989;SDS011;30723;51.206;3.326;2022-09-09T16:56:11;7.13;;;1.75;;
44989;SDS011;30723;51.206;3.326;2022-09-09T16:58:41;13.65;;;2.03;;
44989;SDS011;30723;51.206;3.326;2022-09-09T17:01:10;5.20;;;2.15;;
44989;SDS011;30723;51.206;3.326;2022-09-09T17:03:39;9.70;;;2.25;;
44989;SDS011;30723;51.206;3.326;2022-09-09T17:06:08;7.57;;;1.88;;
44989;SDS011;30723;51.206;3.326;2022-09-09T17:08:38;8.75;;;2.40;;
44989;SDS011;30723;51.206;3.326;2022-09-09T17:11:15;7.20;;;1.60;;
44989;SDS011;30723;51.206;3.326;2022-09-09T17:13:43;8.05;;;1.95;;
44989;SDS011;30723;51.206;3.326;2022-09-09T17:16:10;7.78;;;1.95;;
44989;SDS011;30723;51.206;3.326;2022-09-09T17:18:37;5.82;;;1.90;;
44989;SDS011;30723;51.206;3.326;2022-09-09T17:21:07;7.95;;;2.75;;
44989;SDS011;30723;51.206;3.326;2022-09-09T17:23:44;10.80;;;2.22;;
44989;SDS011;30723;51.206;3.326;2022-09-09T17:26:11;9.50;;;2.38;;
44989;SDS011;30723;51.206;3.326;2022-09-09T17:28:39;6.18;;;2.28;;
44989;SDS011;30723;51.206;3.326;2022-09-09T17:31:06;11.20;;;2.20;;